Time;durP1;ratioP1;P1;durP2;ratioP2;P2;SDS_P1;SDS_P2;PMS_P1;PMS_P2;Temp;Humidity;BMP_temperature;BMP_pressure;BME280_temperature;BME280_humidity;BME280_pressure;Samples;Min_cycle;Max_cycle;Signal;HPM_P1;HPM_P2
2022/10/19 00:01:30;;;;;;;;;;;19.80;94.50;;;;;;4938348;28;19927;-70
2022/10/19 00:03:55;;;;;;;;;;;19.80;94.60;;;;;;4938252;29;19948;-72
2022/10/19 00:06:24;;;;;;;;;;;19.70;94.40;;;;;;4954726;28;19926;-72
2022/10/19 00:08:50;;;;;;;;;;;20.00;94.40;;;;;;4955626;28;20372;-72
2022/10/19 00:11:16;;;;;;;;;;;19.70;94.40;;;;;;4953571;28;19977;-72
2022/10/19 00:13:41;;;;;;;;;;;19.70;94.40;;;;;;4955501;29;19977;-68
2022/10/19 00:16:11;;;;;;;;;;;20.00;94.40;;;;;;4953865;28;19977;-71
2022/10/19 00:18:37;;;;;;;;;;;19.90;94.40;;;;;;4937692;29;19949;-71
2022/10/19 00:21:03;;;;;;;;;;;20.00;94.40;;;;;;4954567;28;20021;-71
2022/10/19 00:23:29;;;;;;;;;;;19.80;94.60;;;;;;4939020;29;20261;-72
2022/10/19 00:25:55;;;;;;;;;;;19.70;94.30;;;;;;4955524;28;19933;-71
2022/10/19 00:28:20;;;;;;;;;;;20.00;94.60;;;;;;4954936;28;19949;-72
2022/10/19 00:30:46;;;;;;;;;;;19.80;94.40;;;;;;4953112;28;19935;-72
2022/10/19 00:33:11;;;;;;;;;;;19.80;94.60;;;;;;4938299;29;19926;-70
2022/10/19 00:35:40;;;;;;;;;;;19.80;94.50;;;;;;4955639;29;19927;-68
2022/10/19 00:38:05;;;;;;;;;;;19.90;94.00;;;;;;4955459;29;19934;-71
2022/10/19 00:40:37;;;;;;;;;;;19.60;94.40;;;;;;4938544;29;19926;-67
2022/10/19 00:43:04;;;;;;;;;;;19.80;94.40;;;;;;4962607;28;19973;-71
2022/10/19 00:45:30;;;;;;;;;;;20.00;94.50;;;;;;4931262;29;19930;-71
2022/10/19 00:47:55;;;;;;;;;;;19.90;94.40;;;;;;4938495;29;20384;-71
2022/10/19 00:50:21;;;;;;;;;;;19.80;94.40;;;;;;4938062;29;20380;-71
2022/10/19 00:52:47;;;;;;;;;;;19.80;94.30;;;;;;4954423;28;19931;-69
2022/10/19 00:55:12;;;;;;;;;;;20.10;94.50;;;;;;4953738;28;20080;-72
2022/10/19 00:57:38;;;;;;;;;;;19.70;94.40;;;;;;4955202;29;19926;-72
2022/10/19 01:00:04;;;;;;;;;;;19.80;94.70;;;;;;4956171;28;19922;-71
2022/10/19 01:02:30;;;;;;;;;;;19.70;94.30;;;;;;4954154;28;19933;-70
2022/10/19 01:04:55;;;;;;;;;;;19.80;94.50;;;;;;4954101;28;20376;-68
2022/10/19 01:07:21;;;;;;;;;;;19.60;94.20;;;;;;4955162;28;19926;-71
2022/10/19 01:09:46;;;;;;;;;;;19.70;94.40;;;;;;4938172;29;19995;-70
2022/10/19 01:12:15;;;;;;;;;;;20.00;94.50;;;;;;4937859;29;19934;-72
2022/10/19 01:14:47;;;;;;;;;;;19.70;93.80;;;;;;4955298;28;19926;-71
2022/10/19 01:17:16;;;;;;;;;;;19.80;93.90;;;;;;4953287;28;20398;-70
2022/10/19 01:20:00;;;;;;;;;;;19.80;94.30;;;;;;4947917;29;19982;-70
2022/10/19 01:22:35;;;;;;;;;;;19.80;93.90;;;;;;4958432;29;19934;-71
2022/10/19 01:25:00;;;;;;;;;;;19.40;93.80;;;;;;4957228;28;19926;-66
2022/10/19 01:27:29;;;;;;;;;;;19.90;94.40;;;;;;4957460;29;20448;-64
2022/10/19 01:30:01;;;;;;;;;;;19.50;93.70;;;;;;4959152;29;19926;-65
2022/10/19 01:32:27;;;;;;;;;;;19.80;94.20;;;;;;4957411;29;19977;-63
2022/10/19 01:34:56;;;;;;;;;;;19.80;94.20;;;;;;4965889;28;20380;-65
2022/10/19 01:37:32;;;;;;;;;;;19.70;94.10;;;;;;4958514;29;19934;-63
2022/10/19 01:40:17;;;;;;;;;;;20.60;94.00;;;;;;4941317;29;19926;-64
2022/10/19 01:42:48;;;;;;;;;;;19.70;94.20;;;;;;4958084;29;19927;-70
2022/10/19 01:45:18;;;;;;;;;;;19.70;94.20;;;;;;4956432;28;20004;-71
2022/10/19 01:47:49;;;;;;;;;;;19.70;93.80;;;;;;4942104;29;19926;-70
2022/10/19 01:50:16;;;;;;;;;;;19.80;94.20;;;;;;4958653;28;19927;-71
2022/10/19 01:52:42;;;;;;;;;;;20.00;94.20;;;;;;4956355;28;19990;-64
2022/10/19 01:55:08;;;;;;;;;;;19.70;94.30;;;;;;4955499;28;19926;-70
2022/10/19 01:57:35;;;;;;;;;;;19.50;94.10;;;;;;4940634;29;19931;-70
2022/10/19 02:00:06;;;;;;;;;;;19.70;94.20;;;;;;4940849;29;19933;-71
2022/10/19 02:02:32;;;;;;;;;;;19.80;94.40;;;;;;4941139;29;19926;-71
2022/10/19 02:04:58;;;;;;;;;;;19.50;94.10;;;;;;4940032;29;19926;-71
2022/10/19 02:07:23;;;;;;;;;;;19.70;94.10;;;;;;4956975;28;19926;-71
2022/10/19 02:09:49;;;;;;;;;;;19.60;94.10;;;;;;4957385;28;19927;-71
2022/10/19 02:12:15;;;;;;;;;;;19.70;94.20;;;;;;4957573;29;20021;-69
2022/10/19 02:14:41;;;;;;;;;;;19.60;94.10;;;;;;4940714;29;19927;-70
2022/10/19 02:17:08;;;;;;;;;;;19.60;94.30;;;;;;4956526;28;19930;-71
2022/10/19 02:19:33;;;;;;;;;;;19.70;94.10;;;;;;4923824;29;19969;-71
2022/10/19 02:21:59;;;;;;;;;;;19.50;94.10;;;;;;4939874;29;20020;-71
2022/10/19 02:24:24;;;;;;;;;;;19.70;94.20;;;;;;4925030;28;19926;-65
2022/10/19 02:26:50;;;;;;;;;;;19.60;94.20;;;;;;4956210;28;20473;-70
2022/10/19 02:29:16;;;;;;;;;;;19.80;94.30;;;;;;4939880;29;19931;-70
2022/10/19 02:31:41;;;;;;;;;;;19.70;94.20;;;;;;4940345;29;19926;-67
2022/10/19 02:34:07;;;;;;;;;;;19.50;94.20;;;;;;4957459;29;20384;-63
2022/10/19 02:36:32;;;;;;;;;;;19.60;94.00;;;;;;4956515;28;19926;-63
2022/10/19 02:38:58;;;;;;;;;;;19.50;94.10;;;;;;4939757;28;19974;-69
2022/10/19 02:41:44;;;;;;;;;;;19.70;94.10;;;;;;4911509;28;19926;-64
2022/10/19 02:44:14;;;;;;;;;;;19.60;94.20;;;;;;4879228;29;20018;-69
2022/10/19 02:46:41;;;;;;;;;;;19.50;94.00;;;;;;4879135;29;19928;-68
2022/10/19 02:49:06;;;;;;;;;;;19.70;94.00;;;;;;4847459;29;19935;-64
2022/10/19 02:51:33;;;;;;;;;;;19.80;94.20;;;;;;4878797;29;19935;-65
2022/10/19 02:53:59;;;;;;;;;;;19.90;94.30;;;;;;4879136;29;19935;-64
2022/10/19 02:56:24;;;;;;;;;;;19.40;94.10;;;;;;4863379;29;19928;-63
2022/10/19 02:58:50;;;;;;;;;;;19.80;94.10;;;;;;4884435;29;19927;-63
2022/10/19 03:01:16;;;;;;;;;;;19.60;94.00;;;;;;4888710;29;19939;-64
2022/10/19 03:03:41;;;;;;;;;;;19.80;94.20;;;;;;4879039;29;19928;-63
2022/10/19 03:06:07;;;;;;;;;;;19.60;94.00;;;;;;4878884;29;19928;-63
2022/10/19 03:08:32;;;;;;;;;;;19.70;94.10;;;;;;4878105;29;20470;-65
2022/10/19 03:10:58;;;;;;;;;;;19.60;94.00;;;;;;4878344;29;19935;-64
2022/10/19 03:13:24;;;;;;;;;;;19.60;93.90;;;;;;4848115;29;19923;-64
2022/10/19 03:15:49;;;;;;;;;;;19.70;94.00;;;;;;4884453;29;20023;-63
2022/10/19 03:18:15;;;;;;;;;;;19.50;94.10;;;;;;4897388;29;19930;-63
2022/10/19 03:20:40;;;;;;;;;;;19.80;94.00;;;;;;4900675;29;19989;-63
2022/10/19 03:23:06;;;;;;;;;;;19.60;94.00;;;;;;4956192;29;19930;-63
2022/10/19 03:25:32;;;;;;;;;;;19.70;94.10;;;;;;4956426;29;20384;-64
2022/10/19 03:27:57;;;;;;;;;;;19.40;93.90;;;;;;4956242;28;19926;-64
2022/10/19 03:30:23;;;;;;;;;;;19.40;94.10;;;;;;4938059;29;20299;-63
2022/10/19 03:32:49;;;;;;;;;;;19.30;94.00;;;;;;4939692;28;19927;-64
2022/10/19 03:35:14;;;;;;;;;;;19.50;93.90;;;;;;4956236;29;19927;-69
2022/10/19 03:37:40;;;;;;;;;;;19.70;93.90;;;;;;4938199;29;19969;-65
2022/10/19 03:40:06;;;;;;;;;;;19.30;93.80;;;;;;4955284;28;20490;-67
2022/10/19 03:42:31;;;;;;;;;;;19.40;93.80;;;;;;4955852;29;19933;-65
2022/10/19 03:44:57;;;;;;;;;;;19.60;94.00;;;;;;4955961;28;20014;-65
2022/10/19 03:47:22;;;;;;;;;;;19.50;93.90;;;;;;4956275;29;19927;-63
2022/10/19 03:49:49;;;;;;;;;;;19.40;94.00;;;;;;4956300;28;19981;-64
2022/10/19 03:52:15;;;;;;;;;;;19.40;93.90;;;;;;4955239;28;19926;-63
2022/10/19 03:54:41;;;;;;;;;;;19.60;93.90;;;;;;4954454;28;19938;-63
2022/10/19 03:57:07;;;;;;;;;;;19.40;93.90;;;;;;4955378;28;19927;-64
2022/10/19 03:59:32;;;;;;;;;;;19.40;94.10;;;;;;4956044;29;19933;-64
2022/10/19 04:01:58;;;;;;;;;;;19.60;94.00;;;;;;4953950;28;20062;-63
2022/10/19 04:04:23;;;;;;;;;;;19.60;93.90;;;;;;4938481;29;19930;-64
2022/10/19 04:06:49;;;;;;;;;;;19.50;93.90;;;;;;4956242;28;19927;-66
2022/10/19 04:09:16;;;;;;;;;;;19.40;93.90;;;;;;4955642;28;20273;-66
2022/10/19 04:11:42;;;;;;;;;;;19.70;94.00;;;;;;4955156;28;19927;-67
2022/10/19 04:14:07;;;;;;;;;;;19.60;93.90;;;;;;4954898;28;19933;-64
2022/10/19 04:16:33;;;;;;;;;;;19.40;93.80;;;;;;4955102;28;19927;-63
2022/10/19 04:18:59;;;;;;;;;;;19.30;93.80;;;;;;4938282;29;19926;-67
2022/10/19 04:21:25;;;;;;;;;;;19.30;93.80;;;;;;4955511;28;19982;-63
2022/10/19 04:23:51;;;;;;;;;;;19.60;93.90;;;;;;4944123;28;19958;-63
2022/10/19 04:26:17;;;;;;;;;;;19.50;94.10;;;;;;4974797;28;19969;-63
2022/10/19 04:28:43;;;;;;;;;;;19.60;94.10;;;;;;4947901;29;19978;-64
2022/10/19 04:31:08;;;;;;;;;;;19.50;93.90;;;;;;4937998;29;19933;-63
2022/10/19 04:33:34;;;;;;;;;;;19.40;93.80;;;;;;4954610;28;19929;-63
2022/10/19 04:36:00;;;;;;;;;;;19.60;94.00;;;;;;4955433;29;19926;-63
2022/10/19 04:38:26;;;;;;;;;;;19.30;94.00;;;;;;4938529;28;19966;-64
2022/10/19 04:40:51;;;;;;;;;;;19.40;93.80;;;;;;4955874;28;20017;-65
2022/10/19 04:43:17;;;;;;;;;;;19.50;94.00;;;;;;4955998;29;19998;-63
2022/10/19 04:45:42;;;;;;;;;;;19.30;93.80;;;;;;4954502;28;19926;-63
2022/10/19 04:48:08;;;;;;;;;;;19.40;93.80;;;;;;4955629;28;19930;-64
2022/10/19 04:50:34;;;;;;;;;;;19.30;93.80;;;;;;4940684;29;20296;-63
2022/10/19 04:52:59;;;;;;;;;;;19.50;93.80;;;;;;4958311;28;19934;-64
2022/10/19 04:55:25;;;;;;;;;;;19.40;93.80;;;;;;4958214;28;19934;-64
2022/10/19 04:57:50;;;;;;;;;;;19.50;93.60;;;;;;4948135;28;20372;-64
2022/10/19 05:00:16;;;;;;;;;;;19.50;93.60;;;;;;4972325;28;19970;-62
2022/10/19 05:02:43;;;;;;;;;;;19.40;93.80;;;;;;4959174;29;19973;-63
2022/10/19 05:05:08;;;;;;;;;;;19.60;93.80;;;;;;4958750;29;19926;-63
2022/10/19 05:07:34;;;;;;;;;;;19.40;93.90;;;;;;4957411;28;19933;-63
2022/10/19 05:09:59;;;;;;;;;;;19.30;93.80;;;;;;4958992;29;20022;-63
2022/10/19 05:12:25;;;;;;;;;;;19.40;93.80;;;;;;4958253;28;19927;-63
2022/10/19 05:14:51;;;;;;;;;;;19.30;93.80;;;;;;4958672;28;19926;-67
2022/10/19 05:17:16;;;;;;;;;;;19.30;93.70;;;;;;4957877;28;19993;-66
2022/10/19 05:19:42;;;;;;;;;;;19.30;93.70;;;;;;4958717;29;20294;-62
2022/10/19 05:22:07;;;;;;;;;;;19.30;93.70;;;;;;4958295;29;20391;-62
2022/10/19 05:24:33;;;;;;;;;;;19.70;93.90;;;;;;4958564;28;19993;-62
2022/10/19 05:26:59;;;;;;;;;;;19.50;93.70;;;;;;4940679;28;19931;-72
2022/10/19 05:29:24;;;;;;;;;;;19.50;93.70;;;;;;4958564;29;19974;-64
2022/10/19 05:31:50;;;;;;;;;;;19.20;93.60;;;;;;4960687;28;20021;-63
2022/10/19 05:34:15;;;;;;;;;;;19.50;93.70;;;;;;4956172;29;19931;-68
2022/10/19 05:36:41;;;;;;;;;;;19.50;93.70;;;;;;4958391;29;20017;-66
2022/10/19 05:39:08;;;;;;;;;;;19.50;93.20;;;;;;4957342;28;20292;-63
2022/10/19 05:41:33;;;;;;;;;;;19.30;93.30;;;;;;4957273;28;21571;-67
2022/10/19 05:43:59;;;;;;;;;;;19.40;93.40;;;;;;4957334;28;19981;-67
2022/10/19 05:46:25;;;;;;;;;;;19.50;93.50;;;;;;4957821;28;19926;-68
2022/10/19 05:48:51;;;;;;;;;;;19.20;93.40;;;;;;4958394;28;19926;-71
2022/10/19 05:51:17;;;;;;;;;;;19.40;93.40;;;;;;4957857;29;19926;-71
2022/10/19 05:53:43;;;;;;;;;;;19.60;93.50;;;;;;4957448;28;19982;-67
2022/10/19 05:56:11;;;;;;;;;;;19.10;93.30;;;;;;4957664;29;19931;-72
2022/10/19 05:58:37;;;;;;;;;;;19.40;93.20;;;;;;4956759;28;19926;-63
2022/10/19 06:01:03;;;;;;;;;;;19.30;93.20;;;;;;4957063;28;19927;-68
2022/10/19 06:03:28;;;;;;;;;;;19.20;93.30;;;;;;4958046;29;19924;-74
2022/10/19 06:05:54;;;;;;;;;;;19.30;93.30;;;;;;4957962;28;19974;-74
2022/10/19 06:08:20;;;;;;;;;;;19.50;93.20;;;;;;4949374;29;19926;-64
2022/10/19 06:10:46;;;;;;;;;;;19.50;93.20;;;;;;4957096;28;19934;-74
2022/10/19 06:13:11;;;;;;;;;;;19.30;93.20;;;;;;4957916;29;19926;-74
2022/10/19 06:15:39;;;;;;;;;;;19.50;93.30;;;;;;4957024;28;19926;-70
2022/10/19 06:18:08;;;;;;;;;;;19.50;93.20;;;;;;4957779;29;20281;-72
2022/10/19 06:20:34;;;;;;;;;;;19.30;93.00;;;;;;4956582;28;19926;-73
2022/10/19 06:22:59;;;;;;;;;;;19.50;93.30;;;;;;4957465;28;19934;-73
2022/10/19 06:25:25;;;;;;;;;;;19.50;93.00;;;;;;4956640;28;19942;-74
2022/10/19 06:27:51;;;;;;;;;;;19.40;93.20;;;;;;4956438;28;19973;-73
2022/10/19 06:30:17;;;;;;;;;;;19.20;93.10;;;;;;4941039;29;20407;-73
2022/10/19 06:32:43;;;;;;;;;;;19.30;93.10;;;;;;4957538;29;19933;-73
2022/10/19 06:35:09;;;;;;;;;;;19.50;93.10;;;;;;4957448;29;20054;-73
2022/10/19 06:37:34;;;;;;;;;;;19.50;93.00;;;;;;4952608;28;19965;-73
2022/10/19 06:40:00;;;;;;;;;;;19.70;93.00;;;;;;4956100;28;20307;-73
2022/10/19 06:42:25;;;;;;;;;;;19.40;92.90;;;;;;4956418;28;19931;-72
2022/10/19 06:44:51;;;;;;;;;;;19.60;93.00;;;;;;4957196;29;19933;-68
2022/10/19 06:47:17;;;;;;;;;;;19.40;93.00;;;;;;4938764;29;20013;-73
2022/10/19 06:49:43;;;;;;;;;;;19.20;93.00;;;;;;4923535;28;20328;-74
2022/10/19 06:52:08;;;;;;;;;;;19.40;93.10;;;;;;4940006;29;19927;-73
2022/10/19 06:54:34;;;;;;;;;;;19.40;92.90;;;;;;4957073;29;19933;-73
2022/10/19 06:56:59;;;;;;;;;;;19.60;93.10;;;;;;4956399;28;19934;-68
2022/10/19 06:59:25;;;;;;;;;;;19.60;93.10;;;;;;4956630;28;20284;-73
2022/10/19 07:01:51;;;;;;;;;;;19.50;93.10;;;;;;4956969;29;20388;-70
2022/10/19 07:04:16;;;;;;;;;;;19.50;93.00;;;;;;4956534;29;19998;-73
2022/10/19 07:06:42;;;;;;;;;;;19.60;93.00;;;;;;4957136;29;20017;-74
2022/10/19 07:09:07;;;;;;;;;;;19.30;93.00;;;;;;4955219;28;20438;-73
2022/10/19 07:11:33;;;;;;;;;;;19.50;93.00;;;;;;4953313;28;19934;-65
2022/10/19 07:13:59;;;;;;;;;;;19.60;93.00;;;;;;4956081;28;19926;-73
2022/10/19 07:16:24;;;;;;;;;;;19.60;93.00;;;;;;4956199;28;19933;-73
2022/10/19 07:18:51;;;;;;;;;;;19.50;92.90;;;;;;4922964;29;20262;-72
2022/10/19 07:21:17;;;;;;;;;;;19.40;93.10;;;;;;4955470;28;19931;-73
2022/10/19 07:23:43;;;;;;;;;;;19.60;93.00;;;;;;4953208;28;19977;-69
2022/10/19 07:26:20;;;;;;;;;;;19.60;93.00;;;;;;4953417;28;20288;-73
2022/10/19 07:28:46;;;;;;;;;;;19.40;92.90;;;;;;4924075;29;20012;-65
2022/10/19 07:31:12;;;;;;;;;;;19.60;93.00;;;;;;4931860;29;20062;-73
2022/10/19 07:33:38;;;;;;;;;;;19.40;92.90;;;;;;4945188;28;19962;-68
2022/10/19 07:36:04;;;;;;;;;;;19.70;92.90;;;;;;4959159;28;19973;-70
2022/10/19 07:38:30;;;;;;;;;;;19.80;92.90;;;;;;4956505;28;19937;-68
2022/10/19 07:41:08;;;;;;;;;;;19.50;92.70;;;;;;4944234;29;19930;-69
2022/10/19 07:43:34;;;;;;;;;;;19.70;92.70;;;;;;4955954;29;19980;-73
2022/10/19 07:46:04;;;;;;;;;;;19.80;92.90;;;;;;4939061;29;19975;-68
2022/10/19 07:48:29;;;;;;;;;;;19.60;92.70;;;;;;4937990;29;20010;-69
2022/10/19 07:50:55;;;;;;;;;;;19.70;92.70;;;;;;4955863;29;20017;-70
2022/10/19 07:53:21;;;;;;;;;;;19.90;92.80;;;;;;4938695;29;19934;-72
2022/10/19 07:55:47;;;;;;;;;;;19.60;92.50;;;;;;4922652;29;20020;-71
2022/10/19 07:58:12;;;;;;;;;;;19.80;91.80;;;;;;4956128;29;19926;-74
2022/10/19 08:00:38;;;;;;;;;;;19.70;91.70;;;;;;4953931;28;20401;-67
2022/10/19 08:03:03;;;;;;;;;;;19.40;91.90;;;;;;4955609;28;19927;-67
2022/10/19 08:05:31;;;;;;;;;;;19.60;92.00;;;;;;4952463;28;20032;-65
2022/10/19 08:07:56;;;;;;;;;;;19.60;92.00;;;;;;4953115;28;19931;-72
2022/10/19 08:10:22;;;;;;;;;;;19.60;92.10;;;;;;4954034;28;19933;-73
2022/10/19 08:12:47;;;;;;;;;;;19.80;92.20;;;;;;4955922;29;20017;-70
2022/10/19 08:15:14;;;;;;;;;;;19.70;92.10;;;;;;4922650;29;19926;-68
2022/10/19 08:17:39;;;;;;;;;;;19.70;91.90;;;;;;4954597;28;19974;-68
2022/10/19 08:20:05;;;;;;;;;;;19.60;91.80;;;;;;4952174;28;19926;-68
2022/10/19 08:22:31;;;;;;;;;;;20.00;91.90;;;;;;4950236;28;19926;-70
2022/10/19 08:24:56;;;;;;;;;;;20.00;91.90;;;;;;4978600;28;19926;-67
2022/10/19 08:27:22;;;;;;;;;;;19.70;91.90;;;;;;4961506;28;19994;-66
2022/10/19 08:29:47;;;;;;;;;;;19.90;91.90;;;;;;4959901;28;19990;-67
2022/10/19 08:32:13;;;;;;;;;;;19.70;91.80;;;;;;4942877;29;20332;-74
2022/10/19 08:34:39;;;;;;;;;;;19.50;91.60;;;;;;4959329;29;20403;-72
2022/10/19 08:37:04;;;;;;;;;;;19.70;91.70;;;;;;4958071;28;19926;-67
2022/10/19 08:39:30;;;;;;;;;;;20.00;91.80;;;;;;4959534;28;20005;-74
2022/10/19 08:41:55;;;;;;;;;;;19.60;91.80;;;;;;4959155;29;19931;-67
2022/10/19 08:44:21;;;;;;;;;;;19.70;91.80;;;;;;4957349;28;19922;-65
2022/10/19 08:46:47;;;;;;;;;;;;;;;;;;4962137;28;19927;-65
2022/10/19 08:49:14;;;;;;;;;;;19.80;91.20;;;;;;4958474;29;19933;-66
2022/10/19 08:51:40;;;;;;;;;;;19.70;90.50;;;;;;4958368;29;19934;-66
2022/10/19 08:54:11;;;;;;;;;;;19.90;90.30;;;;;;4941623;29;20343;-63
2022/10/19 08:56:39;;;;;;;;;;;19.70;89.90;;;;;;4944421;29;19937;-67
2022/10/19 08:59:20;;;;;;;;;;;19.60;89.70;;;;;;4956074;29;19933;-76
2022/10/19 09:01:57;;;;;;;;;;;19.80;89.70;;;;;;4938273;29;19937;-71
2022/10/19 09:04:23;;;;;;;;;;;19.40;88.90;;;;;;4939691;29;19933;-75
2022/10/19 09:07:01;;;;;;;;;;;19.90;89.60;;;;;;4938722;29;19927;-75
2022/10/19 09:09:27;;;;;;;;;;;19.70;89.00;;;;;;4945369;29;19926;-67
2022/10/19 09:11:54;;;;;;;;;;;19.50;89.00;;;;;;4939344;29;19933;-67
2022/10/19 09:14:21;;;;;;;;;;;19.90;89.00;;;;;;4940395;29;19934;-76
2022/10/19 09:16:47;;;;;;;;;;;19.50;88.70;;;;;;4938489;29;19927;-66
2022/10/19 09:19:24;;;;;;;;;;;19.50;88.80;;;;;;4957827;29;20062;-73
2022/10/19 09:21:50;;;;;;;;;;;19.60;89.10;;;;;;4957181;29;19965;-65
2022/10/19 09:24:35;;;;;;;;;;;19.80;89.10;;;;;;4955316;29;19977;-72
2022/10/19 09:27:01;;;;;;;;;;;20.00;89.10;;;;;;4938394;29;20021;-67
2022/10/19 09:29:36;;;;;;;;;;;19.70;88.90;;;;;;4930092;28;20060;-73
2022/10/19 09:32:02;;;;;;;;;;;19.40;88.60;;;;;;4952242;29;19950;-65
2022/10/19 09:34:29;;;;;;;;;;;19.80;89.00;;;;;;4954516;28;19926;-66
2022/10/19 09:36:56;;;;;;;;;;;19.80;89.20;;;;;;4938614;29;19926;-66
2022/10/19 09:39:22;;;;;;;;;;;19.60;89.30;;;;;;4960730;28;19933;-70
2022/10/19 09:41:54;;;;;;;;;;;19.40;88.80;;;;;;4952540;29;19927;-66
2022/10/19 09:44:20;;;;;;;;;;;19.60;88.80;;;;;;4938691;29;19926;-66
2022/10/19 09:46:50;;;;;;;;;;;19.70;88.80;;;;;;4949694;28;20009;-70
2022/10/19 09:49:17;;;;;;;;;;;19.50;88.90;;;;;;4950713;28;19930;-68
2022/10/19 09:51:50;;;;;;;;;;;19.60;88.70;;;;;;4943066;29;19932;-65
2022/10/19 09:54:24;;;;;;;;;;;19.50;88.70;;;;;;4935820;28;19935;-67
2022/10/19 09:56:53;;;;;;;;;;;19.80;88.70;;;;;;4960375;28;19935;-74
2022/10/19 09:59:20;;;;;;;;;;;19.70;88.90;;;;;;4962755;28;19989;-66
2022/10/19 10:01:46;;;;;;;;;;;19.70;88.50;;;;;;4959775;28;19926;-72
2022/10/19 10:04:12;;;;;;;;;;;;;;;;;;4953144;28;19937;-72
2022/10/19 10:06:41;;;;;;;;;;;20.00;89.00;;;;;;4953464;28;19930;-74
2022/10/19 10:09:09;;;;;;;;;;;19.70;88.90;;;;;;4958228;28;20299;-68
2022/10/19 10:11:35;;;;;;;;;;;19.70;89.00;;;;;;4940463;28;19934;-69
2022/10/19 10:14:24;;;;;;;;;;;19.80;88.90;;;;;;4939250;29;20285;-70
2022/10/19 10:17:16;;;;;;;;;;;19.80;88.90;;;;;;4952361;28;19930;-72
2022/10/19 10:19:49;;;;;;;;;;;19.90;88.90;;;;;;4945253;29;19970;-67
2022/10/19 10:22:23;;;;;;;;;;;19.80;89.20;;;;;;4950590;28;19926;-67
2022/10/19 10:24:50;;;;;;;;;;;;;;;;;;4948940;29;20296;-70
2022/10/19 10:27:23;;;;;;;;;;;20.10;89.40;;;;;;4934198;29;19934;-74
2022/10/19 10:29:49;;;;;;;;;;;;;;;;;;4950141;29;19937;-66
2022/10/19 10:32:16;;;;;;;;;;;19.80;89.00;;;;;;4951332;29;19926;-69
2022/10/19 10:34:42;;;;;;;;;;;20.10;89.20;;;;;;4953330;29;19926;-70
2022/10/19 10:37:17;;;;;;;;;;;20.00;89.30;;;;;;4938692;28;20017;-74
2022/10/19 10:39:43;;;;;;;;;;;20.00;89.30;;;;;;4956185;29;20308;-71
2022/10/19 10:42:11;;;;;;;;;;;20.00;89.20;;;;;;4954770;29;19934;-67
2022/10/19 10:44:38;;;;;;;;;;;19.90;89.00;;;;;;4944189;29;19934;-72
2022/10/19 10:47:04;;;;;;;;;;;19.80;89.20;;;;;;4949831;28;19933;-78
2022/10/19 10:49:34;;;;;;;;;;;19.90;89.40;;;;;;4939062;29;20392;-76
2022/10/19 10:52:00;;;;;;;;;;;;;;;;;;4934255;28;20034;-63
2022/10/19 10:54:32;;;;;;;;;;;19.90;89.70;;;;;;4956835;28;19930;-68
2022/10/19 10:57:14;;;;;;;;;;;19.90;89.70;;;;;;4955524;28;19981;-73
2022/10/19 10:59:59;;;;;;;;;;;20.00;89.40;;;;;;4955615;28;20017;-67
2022/10/19 11:02:33;;;;;;;;;;;19.90;88.70;;;;;;4956407;29;19981;-71
2022/10/19 11:05:05;;;;;;;;;;;20.00;88.40;;;;;;4956350;29;20327;-72
2022/10/19 11:07:31;;;;;;;;;;;20.00;88.60;;;;;;4938081;29;19927;-66
2022/10/19 11:10:08;;;;;;;;;;;19.70;88.30;;;;;;4939089;28;19981;-72
2022/10/19 11:12:37;;;;;;;;;;;19.80;88.20;;;;;;4940346;29;19978;-66
2022/10/19 11:15:15;;;;;;;;;;;19.80;88.10;;;;;;4956587;29;19926;-68
2022/10/19 11:17:45;;;;;;;;;;;19.90;88.30;;;;;;4955664;28;20324;-75
2022/10/19 11:20:13;;;;;;;;;;;20.00;88.10;;;;;;4956361;29;19973;-73
2022/10/19 11:22:42;;;;;;;;;;;19.90;88.30;;;;;;4939080;29;19970;-73
2022/10/19 11:25:17;;;;;;;;;;;19.70;88.10;;;;;;4956363;29;19926;-67
2022/10/19 11:27:49;;;;;;;;;;;19.90;88.20;;;;;;4955343;28;20380;-68
2022/10/19 11:30:15;;;;;;;;;;;19.80;87.80;;;;;;4960303;28;20284;-74
2022/10/19 11:32:43;;;;;;;;;;;19.90;87.80;;;;;;4956287;29;19927;-73
2022/10/19 11:35:27;;;;;;;;;;;20.10;87.00;;;;;;4938751;29;19926;-72
2022/10/19 11:38:12;;;;;;;;;;;19.90;87.80;;;;;;4938764;29;20439;-66
2022/10/19 11:40:43;;;;;;;;;;;19.80;87.90;;;;;;4956044;29;20269;-65
2022/10/19 11:43:10;;;;;;;;;;;;;;;;;;4955682;29;19932;-66
2022/10/19 11:45:58;;;;;;;;;;;19.70;88.00;;;;;;4956588;28;19941;-63
2022/10/19 11:48:28;;;;;;;;;;;20.00;88.00;;;;;;4896626;29;19987;-66
2022/10/19 11:50:56;;;;;;;;;;;19.70;88.00;;;;;;4896754;29;20035;-67
2022/10/19 11:53:41;;;;;;;;;;;20.10;88.20;;;;;;4896599;29;19927;-63
2022/10/19 11:56:12;;;;;;;;;;;20.00;88.20;;;;;;4896444;29;19970;-63
2022/10/19 11:58:41;;;;;;;;;;;19.90;88.10;;;;;;4896053;29;19927;-66
2022/10/19 12:01:16;;;;;;;;;;;20.10;88.30;;;;;;4896724;29;19927;-66
2022/10/19 12:03:57;;;;;;;;;;;20.10;87.50;;;;;;4896520;29;20043;-66
2022/10/19 12:06:25;;;;;;;;;;;20.20;88.30;;;;;;4896384;29;19992;-63
2022/10/19 12:08:57;;;;;;;;;;;20.00;88.20;;;;;;4896418;29;20026;-68
2022/10/19 12:11:22;;;;;;;;;;;20.10;88.20;;;;;;4896568;29;19975;-66
2022/10/19 12:13:52;;;;;;;;;;;20.00;88.00;;;;;;4896473;29;19923;-66
2022/10/19 12:16:17;;;;;;;;;;;20.20;87.90;;;;;;4880937;29;20118;-63
2022/10/19 12:19:03;;;;;;;;;;;20.20;87.70;;;;;;4880787;29;19943;-66
2022/10/19 12:21:35;;;;;;;;;;;20.00;87.60;;;;;;4880679;29;19928;-65
2022/10/19 12:24:02;;;;;;;;;;;20.10;87.70;;;;;;4896377;29;19979;-66
2022/10/19 12:26:28;;;;;;;;;;;19.80;87.50;;;;;;4935095;29;20408;-66
2022/10/19 12:28:58;;;;;;;;;;;20.00;87.60;;;;;;4954175;29;19933;-62
2022/10/19 12:31:24;;;;;;;;;;;20.20;87.80;;;;;;4938407;29;19927;-66
2022/10/19 12:33:55;;;;;;;;;;;20.00;88.10;;;;;;4938105;29;19931;-66
2022/10/19 12:36:39;;;;;;;;;;;20.30;87.80;;;;;;4957472;28;19978;-69
2022/10/19 12:39:12;;;;;;;;;;;20.20;87.90;;;;;;4974430;28;19985;-67
2022/10/19 12:41:37;;;;;;;;;;;20.60;87.20;;;;;;4924474;29;20415;-63
2022/10/19 12:44:15;;;;;;;;;;;21.00;86.60;;;;;;4938087;29;19973;-66
2022/10/19 12:46:45;;;;;;;;;;;21.60;85.40;;;;;;4955030;29;19974;-67
2022/10/19 12:49:29;;;;;;;;;;;21.60;85.00;;;;;;4938079;29;20339;-65
2022/10/19 12:51:58;;;;;;;;;;;21.60;84.10;;;;;;4955576;29;20276;-67
2022/10/19 12:54:24;;;;;;;;;;;21.50;84.20;;;;;;4955673;28;20283;-62
2022/10/19 12:56:51;;;;;;;;;;;21.10;85.50;;;;;;4954004;29;19927;-66
2022/10/19 12:59:20;;;;;;;;;;;21.30;86.00;;;;;;4954908;29;19933;-66
2022/10/19 13:01:47;;;;;;;;;;;20.80;86.20;;;;;;4953608;29;20384;-66
2022/10/19 13:04:15;;;;;;;;;;;20.90;86.10;;;;;;4938290;29;20002;-64
2022/10/19 13:06:57;;;;;;;;;;;20.70;86.40;;;;;;4937819;29;20293;-65
2022/10/19 13:09:29;;;;;;;;;;;20.50;86.80;;;;;;4955169;28;19930;-69
2022/10/19 13:14:55;;;;;;;;;;;20.40;87.00;;;;;;4956404;29;19926;-69
2022/10/19 13:17:36;;;;;;;;;;;20.20;87.00;;;;;;4958280;29;20009;-69
2022/10/19 13:20:14;;;;;;;;;;;20.30;87.20;;;;;;4958134;29;20431;-66
2022/10/19 13:22:39;;;;;;;;;;;20.30;87.30;;;;;;4957023;29;19998;-67
2022/10/19 13:25:28;;;;;;;;;;;20.30;87.80;;;;;;4958487;29;19931;-66
2022/10/19 13:28:01;;;;;;;;;;;19.90;87.30;;;;;;4861712;29;20363;-66
2022/10/19 13:30:40;;;;;;;;;;;20.20;86.60;;;;;;4846643;29;20027;-66
2022/10/19 13:33:24;;;;;;;;;;;20.10;87.60;;;;;;4860770;29;19932;-66
2022/10/19 13:36:07;;;;;;;;;;;20.00;87.50;;;;;;4865947;29;19964;-66
2022/10/19 13:38:33;;;;;;;;;;;20.10;88.00;;;;;;4864890;29;20292;-66
2022/10/19 13:41:14;;;;;;;;;;;20.00;87.90;;;;;;4836729;29;19987;-64
2022/10/19 13:43:59;;;;;;;;;;;20.00;87.70;;;;;;4879933;29;19928;-73
2022/10/19 13:46:25;;;;;;;;;;;19.80;86.30;;;;;;4879637;29;19928;-67
2022/10/19 13:48:53;;;;;;;;;;;19.80;87.80;;;;;;4866676;29;20076;-66
2022/10/19 13:51:19;;;;;;;;;;;20.00;87.00;;;;;;4861568;29;19951;-67
2022/10/19 13:54:05;;;;;;;;;;;19.80;87.90;;;;;;4861207;29;20418;-68
2022/10/19 13:56:39;;;;;;;;;;;19.70;87.90;;;;;;4860788;29;20279;-65
2022/10/19 13:59:23;;;;;;;;;;;20.00;88.20;;;;;;4861315;29;19928;-66
2022/10/19 14:02:02;;;;;;;;;;;19.90;88.20;;;;;;4861834;29;19969;-67
2022/10/19 14:04:30;;;;;;;;;;;20.10;88.40;;;;;;4886077;29;19936;-68
2022/10/19 14:06:57;;;;;;;;;;;19.60;88.60;;;;;;4905587;29;19931;-67
2022/10/19 14:09:43;;;;;;;;;;;19.40;87.90;;;;;;4937271;29;19926;-66
2022/10/19 14:12:14;;;;;;;;;;;19.40;87.80;;;;;;4937835;29;19927;-74
2022/10/19 14:14:41;;;;;;;;;;;19.70;87.90;;;;;;4921218;29;19957;-75
2022/10/19 14:17:12;;;;;;;;;;;19.70;87.90;;;;;;4938520;29;19927;-67
2022/10/19 14:19:56;;;;;;;;;;;19.60;87.90;;;;;;4936402;29;20285;-66
2022/10/19 14:22:28;;;;;;;;;;;19.70;88.20;;;;;;4937875;29;19949;-71
2022/10/19 14:25:06;;;;;;;;;;;19.40;88.00;;;;;;4938325;29;19995;-67
2022/10/19 14:27:31;;;;;;;;;;;19.60;87.30;;;;;;4938239;29;20091;-67
2022/10/19 14:29:57;;;;;;;;;;;19.60;88.40;;;;;;4920962;29;19997;-69